馬祖北竿航空站 - ATIS

METAR RCMT 181000Z 06014KT 9999 SCT014 SCT040 BKN080 10/04 Q1023 NOSIG RMK A3022(P)=

站台狀態:Offline
最後更新:2020-01-18 19:00:02